Overview Statistics Trail Chart Weather Telemetry Raw packets
 

This is the latest recevied packets stored in our database for station/object IS0HME-11. If no packets are shown the sender has not sent any packets the latest 24 hours.

If you compare the raw packets with similar data from other websites it may differ (especially the path), the reason is that we are not collecting packets from the same APRS-IS servers. Each APRS-IS server performes duplicate filtering, and which packet that is considered to be a duplicate may differ depending on which APRS-IS server you receive your data from.

<< 1 2 3 4 >>

1788603291: IS0HME-11>APRSMC,TCPIP*,qAR,IS0KNW-10:T#399,1018.9,41.3,24.5,1025.0,0.0,00000000

1788603291: IS0HME-11>APRSMC,TCPIP*,qAR,IS0KNW-10:!3917.38N/00900.64E#IS0HME-11#Paolo,Assemimi/B=100/A=000180

1788601504: IS0HME-11>APRSMC,TCPIP*,qAR,IS0GQX-12:T#398,1019.2,38.7,28.1,1025.4,0.0,00000000

1788601492: IS0HME-11>APRSMC,TCPIP*,qAR,IS0URG-10:T#297,1019.2,38.7,28.1,1025.4,0.0,00000000

1788601492: IS0HME-11>APRSMC,TCPIP*,qAR,IS0URG-10:!3917.38N/00900.64E#IS0HME-11#Paolo,Assemimi/B=100/A=000180

1788599647: IS0HME-11>APRSMC,TCPIP*,qAR,IS0KNW-10:T#397,1019.5,38.2,29.7,1025.7,0.0,00000000

1788599647: IS0HME-11>APRSMC,TCPIP*,qAR,IS0KNW-10:!3917.38N/00900.64E#IS0HME-11#Paolo,Assemimi/B=100/A=000180

1788574960: IS0HME-11>APRSMC,TCPIP*,qAR,IS0KNW-10:T#396,1018.4,22.6,81.8,1024.8,0.0,00000000

1788574960: IS0HME-11>APRSMC,TCPIP*,qAR,IS0KNW-10:!3917.38N/00900.64E#IS0HME-11#Paolo,Assemimi/B=100/A=000180

1788573146: IS0HME-11>APRSMC,TCPIP*,qAR,IT9DCF-15:T#014,1018.4,22.3,82.2,1024.9,0.0,00000000

1788573132: IS0HME-11>APRSMC,TCPIP*,qAR,IS0GQX-12:T#395,1018.4,22.3,82.2,1024.9,0.0,00000000

1788573132: IS0HME-11>APRSMC,TCPIP*,qAR,IS0GQX-12:!3917.38N/00900.64E#IS0HME-11#Paolo,Assemimi/B=100/A=000180

1788571323: IS0HME-11>APRSMC,TCPIP*,qAR,IS0GQX-12:T#394,1018.4,23.1,80.2,1024.9,0.0,00000000

1788571323: IS0HME-11>APRSMC,TCPIP*,qAR,IS0GQX-12:!3917.38N/00900.64E#IS0HME-11#Paolo,Assemimi/B=100/A=000180

1788569511: IS0HME-11>APRSMC,TCPIP*,qAR,IT9DCF-15:T#013,1018.6,23.2,81.4,1025.0,0.0,00000000

1788569503: IS0HME-11>APRSMC,TCPIP*,qAR,IS0URG-10:T#292,1018.6,23.2,81.4,1025.0,0.0,00000000

1788569503: IS0HME-11>APRSMC,TCPIP*,qAR,IS0KNW-10:T#393,1018.6,23.2,81.4,1025.0,0.0,00000000

1788569503: IS0HME-11>APRSMC,TCPIP*,qAR,IS0KNW-10:!3917.38N/00900.64E#IS0HME-11#Paolo,Assemimi/B=100/A=000180

1788567689: IS0HME-11>APRSMC,TCPIP*,qAR,IS0KNW-10:T#392,1018.8,23.6,80.1,1025.2,0.0,00000000

1788567689: IS0HME-11>APRSMC,TCPIP*,qAR,IS0KNW-10:!3917.38N/00900.64E#IS0HME-11#Paolo,Assemimi/B=100/A=000180

1788565892: IS0HME-11>APRSMC,TCPIP*,qAR,IT9DCF-15:T#012,1018.9,24.1,77.6,1025.4,0.0,00000000

1788565880: IS0HME-11>APRSMC,TCPIP*,qAR,IS0KNW-10::IS0HME-11:PARM.Press,Temp.in,Hum,QNH,Temp.out,track,-,-,-,-,-,-,-

1788565880: IS0HME-11>APRSMC,TCPIP*,qAR,IS0KNW-10::IS0HME-11:UNIT.hPa,C deg,%,hPa,C deg,Y/N,O/N,O/N,O/N,O/N,O/N,O/N,O/N

1788565880: IS0HME-11>APRSMC,TCPIP*,qAR,IS0KNW-10:T#391,1018.9,24.1,77.6,1025.4,0.0,00000000

1788565880: IS0HME-11>APRSMC,TCPIP*,qAR,IS0KNW-10::IS0HME-11:EQNS.0,1,0,0,1,0,0,1,0,0,1,0,0,1,0